createdAt,value
2019-06-27T00:02:28.488Z,17.13
2019-06-27T00:04:57.582Z,16.07
2019-06-27T00:07:26.667Z,16.13
2019-06-27T00:09:55.742Z,13.50
2019-06-27T00:12:24.939Z,14.40
2019-06-27T00:14:54.012Z,13.80
2019-06-27T00:17:23.055Z,14.53
2019-06-27T00:19:52.254Z,14.33
2019-06-27T00:22:21.362Z,14.97
2019-06-27T00:24:50.450Z,14.73
2019-06-27T00:27:19.539Z,14.93
2019-06-27T00:29:48.546Z,17.30
2019-06-27T00:32:17.645Z,15.57
2019-06-27T00:34:46.801Z,14.63
2019-06-27T00:37:15.882Z,14.87
2019-06-27T00:39:45.074Z,13.80
2019-06-27T00:42:14.198Z,14.80
2019-06-27T00:44:43.323Z,15.53
2019-06-27T00:47:12.344Z,14.73
2019-06-27T00:49:41.448Z,14.87
2019-06-27T00:52:10.522Z,15.13
2019-06-27T00:54:39.625Z,15.37
2019-06-27T00:57:13.826Z,18.87
2019-06-27T00:59:39.512Z,15.10
2019-06-27T01:02:08.610Z,15.40
2019-06-27T01:04:37.633Z,15.83
2019-06-27T01:07:06.731Z,18.10
2019-06-27T01:09:35.928Z,18.93
2019-06-27T01:12:05.020Z,16.43
2019-06-27T01:14:34.110Z,16.27
2019-06-27T01:17:03.180Z,17.13
2019-06-27T01:19:32.279Z,16.17
2019-06-27T01:22:01.367Z,16.60
2019-06-27T01:24:30.470Z,18.40
2019-06-27T01:26:59.542Z,16.43
2019-06-27T01:29:28.566Z,16.90
2019-06-27T01:31:57.648Z,16.20
2019-06-27T01:34:26.766Z,16.73
2019-06-27T01:36:55.856Z,16.63
2019-06-27T01:39:24.942Z,16.53
2019-06-27T01:41:54.019Z,16.63
2019-06-27T01:44:41.001Z,17.87
2019-06-27T01:47:10.666Z,17.37
2019-06-27T01:49:39.760Z,17.37
2019-06-27T01:52:08.846Z,16.60
2019-06-27T01:54:37.906Z,16.60
2019-06-27T01:57:06.991Z,17.13
2019-06-27T01:59:36.144Z,16.67
2019-06-27T02:02:05.558Z,17.00
2019-06-27T02:04:34.752Z,17.53
2019-06-27T02:07:03.829Z,18.07
2019-06-27T02:09:33.640Z,17.60
2019-06-27T02:12:02.864Z,16.60
2019-06-27T02:14:31.917Z,17.40
2019-06-27T02:17:01.001Z,18.13
2019-06-27T02:19:30.071Z,18.07
2019-06-27T02:21:59.150Z,16.93
2019-06-27T02:24:28.313Z,17.10
2019-06-27T02:26:57.402Z,18.83
2019-06-27T02:29:26.481Z,18.83
2019-06-27T02:31:55.697Z,18.50
2019-06-27T02:34:24.772Z,17.70
2019-06-27T02:36:53.856Z,17.73
2019-06-27T02:39:22.949Z,18.13
2019-06-27T02:41:52.065Z,22.93
2019-06-27T02:44:21.219Z,16.83
2019-06-27T02:46:50.317Z,16.70
2019-06-27T02:49:19.448Z,16.83
2019-06-27T02:51:48.600Z,18.10
2019-06-27T02:54:17.689Z,17.67
2019-06-27T02:56:46.769Z,17.60
2019-06-27T02:59:15.867Z,16.70
2019-06-27T03:01:44.949Z,18.37
2019-06-27T03:04:14.041Z,18.40
2019-06-27T03:06:43.103Z,17.27
2019-06-27T03:09:12.183Z,18.30
2019-06-27T03:11:41.316Z,18.67
2019-06-27T03:14:10.515Z,17.63
2019-06-27T03:16:39.724Z,18.90
2019-06-27T03:19:08.949Z,18.00
2019-06-27T03:21:38.060Z,18.60
2019-06-27T03:24:07.149Z,19.00
2019-06-27T03:26:36.206Z,18.00
2019-06-27T03:29:05.282Z,17.77
2019-06-27T03:31:34.442Z,18.50
2019-06-27T03:34:03.547Z,18.30
2019-06-27T03:36:32.694Z,18.20
2019-06-27T03:39:01.786Z,17.97
2019-06-27T03:41:30.939Z,19.83
2019-06-27T03:44:00.000Z,18.67
2019-06-27T03:46:29.087Z,18.77
2019-06-27T03:48:58.165Z,18.80
2019-06-27T03:51:27.376Z,18.27
2019-06-27T03:53:56.457Z,18.30
2019-06-27T03:56:25.520Z,19.80
2019-06-27T03:59:11.669Z,19.60
2019-06-27T04:01:25.535Z,19.40
2019-06-27T04:03:54.775Z,19.27
2019-06-27T04:06:23.868Z,19.77
2019-06-27T04:08:52.947Z,20.07
2019-06-27T04:11:22.016Z,19.63
2019-06-27T04:13:51.145Z,19.83
2019-06-27T04:16:20.388Z,18.23
2019-06-27T04:18:49.465Z,20.10
2019-06-27T04:21:18.628Z,19.07
2019-06-27T04:23:47.808Z,20.10
2019-06-27T04:26:16.904Z,20.10
2019-06-27T04:28:45.994Z,18.97
2019-06-27T04:31:15.097Z,19.27
2019-06-27T04:33:44.179Z,19.20
2019-06-27T04:36:13.262Z,19.10
2019-06-27T04:38:42.340Z,19.57
2019-06-27T04:41:11.425Z,20.23
2019-06-27T04:43:40.536Z,17.53
2019-06-27T04:46:09.620Z,19.70
2019-06-27T04:48:38.784Z,17.83
2019-06-27T04:51:07.793Z,18.83
2019-06-27T04:53:36.867Z,18.43
2019-06-27T04:56:05.962Z,17.77
2019-06-27T04:58:35.108Z,19.10
2019-06-27T05:01:04.299Z,19.30
2019-06-27T05:03:33.395Z,18.20
2019-06-27T05:06:02.473Z,18.03
2019-06-27T05:08:31.643Z,17.90
2019-06-27T05:11:00.741Z,18.43
2019-06-27T05:13:29.855Z,24.50
2019-06-27T05:15:59.222Z,122.00
2019-06-27T05:18:28.317Z,19.90
2019-06-27T05:20:57.323Z,17.87
2019-06-27T05:23:26.337Z,18.23
2019-06-27T05:25:55.755Z,17.23
2019-06-27T05:28:24.843Z,17.27
2019-06-27T05:30:53.940Z,17.13
2019-06-27T05:33:23.057Z,16.23
2019-06-27T05:35:52.467Z,16.07
2019-06-27T05:38:21.573Z,15.27
2019-06-27T05:40:50.642Z,14.93
2019-06-27T05:43:19.736Z,15.40
2019-06-27T05:45:48.808Z,13.97
2019-06-27T05:48:17.959Z,14.90
2019-06-27T05:50:46.909Z,15.37
2019-06-27T05:53:16.068Z,15.10
2019-06-27T05:55:45.180Z,15.50
2019-06-27T05:58:14.257Z,13.27
2019-06-27T06:00:43.354Z,14.07
2019-06-27T06:03:12.483Z,14.13
2019-06-27T06:05:41.654Z,14.73
2019-06-27T06:08:10.871Z,15.27
2019-06-27T06:10:39.970Z,13.33
2019-06-27T06:13:09.070Z,14.17
2019-06-27T06:15:38.190Z,17.33
2019-06-27T06:18:07.304Z,12.37
2019-06-27T06:20:36.522Z,12.73
2019-06-27T06:23:05.638Z,12.77
2019-06-27T06:25:34.735Z,12.80
2019-06-27T06:28:03.849Z,12.07
2019-06-27T06:30:43.977Z,17.10
2019-06-27T06:33:03.812Z,12.80
2019-06-27T06:35:32.953Z,12.80
2019-06-27T06:38:02.079Z,12.95
2019-06-27T06:40:31.209Z,14.35
2019-06-27T06:43:00.821Z,13.05
2019-06-27T06:45:30.047Z,13.13
2019-06-27T06:47:59.254Z,12.17
2019-06-27T06:50:28.447Z,15.23
2019-06-27T06:52:57.605Z,11.63
2019-06-27T06:55:26.839Z,12.53
2019-06-27T06:57:56.045Z,11.50
2019-06-27T07:00:25.422Z,12.13
2019-06-27T07:02:54.604Z,11.37
2019-06-27T07:05:23.779Z,12.23
2019-06-27T07:07:52.941Z,10.63
2019-06-27T07:10:22.077Z,11.50
2019-06-27T07:12:51.157Z,13.07
2019-06-27T07:15:20.261Z,10.07
2019-06-27T07:17:49.385Z,13.00
2019-06-27T07:20:18.799Z,11.37
2019-06-27T07:22:47.874Z,12.77
2019-06-27T07:25:17.006Z,10.47
2019-06-27T07:27:46.170Z,12.50
2019-06-27T07:30:15.490Z,10.50
2019-06-27T07:32:44.678Z,10.73
2019-06-27T07:35:13.729Z,15.33
2019-06-27T07:37:42.828Z,11.67
2019-06-27T07:40:12.340Z,11.13
2019-06-27T07:42:41.630Z,10.23
2019-06-27T07:45:10.795Z,10.23
2019-06-27T07:47:39.871Z,10.33
2019-06-27T07:50:09.675Z,12.50
2019-06-27T07:52:38.774Z,10.13
2019-06-27T07:55:07.977Z,9.53
2019-06-27T07:57:37.124Z,10.23
2019-06-27T08:00:07.290Z,12.87
2019-06-27T08:02:36.386Z,9.43
2019-06-27T08:05:05.672Z,8.77
2019-06-27T08:07:34.780Z,11.73
2019-06-27T08:10:04.102Z,9.90
2019-06-27T08:12:33.196Z,8.73
2019-06-27T08:15:02.273Z,8.43
2019-06-27T08:17:31.392Z,10.07
2019-06-27T08:20:00.517Z,11.73
2019-06-27T08:22:29.678Z,8.27
2019-06-27T08:24:58.832Z,8.60
2019-06-27T08:27:28.006Z,8.40
2019-06-27T08:29:57.176Z,8.53
2019-06-27T08:32:26.252Z,8.10
2019-06-27T08:34:55.354Z,9.63
2019-06-27T08:37:24.713Z,8.63
2019-06-27T08:39:53.857Z,8.53
2019-06-27T08:42:23.022Z,7.70
2019-06-27T08:44:52.087Z,10.87
2019-06-27T08:47:21.212Z,7.53
2019-06-27T08:49:50.264Z,7.50
2019-06-27T08:52:19.418Z,8.77
2019-06-27T08:54:48.595Z,7.53
2019-06-27T08:57:17.738Z,6.73
2019-06-27T08:59:46.890Z,8.63
2019-06-27T09:02:15.983Z,7.03
2019-06-27T09:04:45.094Z,6.90
2019-06-27T09:07:14.253Z,7.53
2019-06-27T09:09:43.419Z,6.37
2019-06-27T09:12:12.506Z,6.40
2019-06-27T09:14:41.576Z,6.37
2019-06-27T09:17:10.772Z,7.10
2019-06-27T09:19:39.883Z,6.13
2019-06-27T09:22:08.978Z,6.13
2019-06-27T09:24:38.082Z,7.43
2019-06-27T09:27:07.171Z,9.07
2019-06-27T09:29:36.265Z,5.27
2019-06-27T09:32:05.371Z,7.47
2019-06-27T09:34:34.494Z,6.13
2019-06-27T09:37:03.630Z,5.77
2019-06-27T09:39:32.721Z,5.57
2019-06-27T09:42:01.833Z,6.03
2019-06-27T09:44:30.949Z,5.60
2019-06-27T09:46:59.984Z,5.37
2019-06-27T09:49:29.089Z,5.63
2019-06-27T09:51:58.158Z,5.60
2019-06-27T09:54:27.258Z,6.27
2019-06-27T09:56:57.115Z,5.40
2019-06-27T09:59:26.218Z,5.33
2019-06-27T10:01:55.394Z,5.97
2019-06-27T10:04:24.501Z,10.90
2019-06-27T10:06:53.695Z,5.33
2019-06-27T10:09:22.770Z,6.80
2019-06-27T10:11:53.365Z,5.30
2019-06-27T10:14:22.735Z,6.10
2019-06-27T10:16:51.834Z,5.10
2019-06-27T10:19:20.915Z,5.33
2019-06-27T10:21:49.993Z,5.70
2019-06-27T10:24:19.123Z,5.50
2019-06-27T10:26:48.387Z,4.73
2019-06-27T10:29:17.747Z,5.53
2019-06-27T10:31:46.819Z,6.20
2019-06-27T10:34:15.882Z,6.43
2019-06-27T10:36:45.018Z,5.63
2019-06-27T10:39:14.175Z,5.57
2019-06-27T10:41:43.297Z,7.00
2019-06-27T10:44:12.413Z,6.93
2019-06-27T10:46:41.465Z,5.63
2019-06-27T10:49:10.489Z,4.97
2019-06-27T10:51:39.573Z,5.47
2019-06-27T10:54:08.737Z,5.73
2019-06-27T10:56:40.064Z,5.57
2019-06-27T10:59:08.642Z,6.10
2019-06-27T11:01:37.755Z,5.23
2019-06-27T11:04:06.833Z,7.73
2019-06-27T11:06:35.978Z,5.77
2019-06-27T11:09:05.535Z,6.00
2019-06-27T11:11:34.651Z,6.07
2019-06-27T11:14:03.827Z,7.93
2019-06-27T11:16:32.877Z,6.07
2019-06-27T11:19:01.984Z,6.40
2019-06-27T11:21:31.123Z,5.90
2019-06-27T11:24:00.183Z,5.90
2019-06-27T11:26:29.319Z,7.33
2019-06-27T11:28:58.457Z,6.27
2019-06-27T11:31:27.576Z,5.53
2019-06-27T11:33:56.665Z,6.30
2019-06-27T11:36:25.683Z,5.80
2019-06-27T11:38:54.690Z,7.80
2019-06-27T11:41:23.753Z,5.50
2019-06-27T11:43:52.868Z,8.57
2019-06-27T11:46:22.083Z,7.17
2019-06-27T11:48:51.214Z,6.17
2019-06-27T11:51:20.344Z,8.00
2019-06-27T11:53:49.458Z,5.80
2019-06-27T11:56:18.543Z,5.87
2019-06-27T11:58:47.628Z,6.00
2019-06-27T12:01:16.714Z,5.97
2019-06-27T12:03:49.729Z,5.47
2019-06-27T12:06:16.619Z,10.97
2019-06-27T12:08:45.767Z,7.40
2019-06-27T12:11:14.892Z,5.20
2019-06-27T12:13:44.007Z,6.08
2019-06-27T12:16:13.087Z,5.13
2019-06-27T12:18:42.247Z,5.60
2019-06-27T12:21:11.287Z,6.57
2019-06-27T12:23:40.435Z,7.13
2019-06-27T12:26:09.610Z,5.77
2019-06-27T12:28:38.645Z,7.70
2019-06-27T12:31:19.958Z,4.97
2019-06-27T12:33:38.964Z,5.87
2019-06-27T12:36:08.269Z,6.90
2019-06-27T12:38:37.343Z,7.40
2019-06-27T12:41:06.803Z,7.53
2019-06-27T12:43:35.978Z,8.10
2019-06-27T12:46:05.067Z,4.90
2019-06-27T12:48:36.998Z,5.10
2019-06-27T12:51:05.971Z,5.07
2019-06-27T12:53:35.073Z,4.70
2019-06-27T12:56:04.210Z,4.97
2019-06-27T12:58:33.358Z,5.23
2019-06-27T13:01:02.488Z,4.93
2019-06-27T13:03:31.661Z,4.80
2019-06-27T13:06:00.776Z,7.07
2019-06-27T13:08:29.972Z,5.47
2019-06-27T13:10:59.209Z,5.57
2019-06-27T13:13:30.483Z,4.70
2019-06-27T13:15:59.404Z,5.17
2019-06-27T13:18:28.598Z,4.62
2019-06-27T13:20:58.740Z,6.13
2019-06-27T13:23:28.133Z,6.63
2019-06-27T13:25:57.336Z,4.12
2019-06-27T13:28:26.525Z,4.50
2019-06-27T13:30:55.775Z,6.13
2019-06-27T13:33:25.002Z,4.50
2019-06-27T13:35:54.171Z,3.97
2019-06-27T13:38:23.319Z,4.37
2019-06-27T13:40:52.410Z,5.80
2019-06-27T13:43:21.536Z,5.23
2019-06-27T13:45:50.716Z,5.77
2019-06-27T13:48:19.908Z,4.77
2019-06-27T13:50:49.005Z,5.33
2019-06-27T13:53:18.197Z,4.50
2019-06-27T13:55:47.288Z,5.93
2019-06-27T13:58:16.468Z,5.97
2019-06-27T14:00:46.322Z,7.93
2019-06-27T14:03:16.232Z,4.77
2019-06-27T14:05:45.386Z,4.87
2019-06-27T14:08:14.671Z,5.40
2019-06-27T14:10:44.096Z,4.20
2019-06-27T14:13:13.278Z,5.00
2019-06-27T14:15:42.491Z,4.93
2019-06-27T14:18:11.594Z,5.07
2019-06-27T14:20:40.765Z,4.20
2019-06-27T14:23:09.954Z,4.83
2019-06-27T14:25:39.081Z,5.67
2019-06-27T14:28:08.331Z,4.87
2019-06-27T14:30:37.453Z,8.53
2019-06-27T14:33:06.630Z,5.40
2019-06-27T14:35:35.712Z,4.93
2019-06-27T14:38:04.888Z,5.93
2019-06-27T14:40:34.068Z,4.53
2019-06-27T14:43:03.176Z,5.00
2019-06-27T14:45:32.271Z,4.30
2019-06-27T14:48:01.476Z,4.60
2019-06-27T14:50:30.586Z,4.77
2019-06-27T14:52:59.757Z,4.60
2019-06-27T14:55:28.936Z,4.70
2019-06-27T14:57:58.074Z,5.43
2019-06-27T15:00:27.502Z,6.03
2019-06-27T15:02:56.609Z,5.30
2019-06-27T15:05:32.396Z,5.40
2019-06-27T15:07:56.500Z,4.23
2019-06-27T15:10:25.591Z,5.13
2019-06-27T15:12:57.405Z,5.67
2019-06-27T15:15:25.616Z,5.80
2019-06-27T15:17:54.819Z,4.73
2019-06-27T15:20:23.922Z,5.20
2019-06-27T15:22:53.019Z,4.80
2019-06-27T15:25:22.260Z,4.37
2019-06-27T15:27:51.340Z,4.57
2019-06-27T15:30:20.730Z,4.43
2019-06-27T15:32:49.880Z,6.33
2019-06-27T15:35:18.973Z,5.13
2019-06-27T15:37:48.071Z,5.70
2019-06-27T15:40:17.597Z,4.73
2019-06-27T15:42:46.598Z,4.77
2019-06-27T15:45:16.125Z,3.80
2019-06-27T15:47:45.224Z,3.63
2019-06-27T15:50:14.303Z,4.37
2019-06-27T15:52:43.401Z,4.30
2019-06-27T15:55:12.589Z,3.73
2019-06-27T15:57:41.601Z,5.20
2019-06-27T16:00:10.903Z,3.30
2019-06-27T16:02:40.076Z,3.30
2019-06-27T16:05:09.463Z,3.33
2019-06-27T16:07:38.622Z,3.37
2019-06-27T16:10:08.307Z,6.27
2019-06-27T16:12:37.400Z,3.53
2019-06-27T16:15:06.902Z,13.03
2019-06-27T16:17:36.086Z,4.20
2019-06-27T16:20:05.947Z,4.57
2019-06-27T16:22:35.077Z,3.60
2019-06-27T16:25:04.442Z,4.67
2019-06-27T16:27:33.552Z,2.53
2019-06-27T16:30:02.643Z,2.43
2019-06-27T16:32:31.714Z,3.10
2019-06-27T16:35:00.826Z,4.30
2019-06-27T16:37:30.321Z,2.80
2019-06-27T16:39:59.445Z,1.93
2019-06-27T16:42:28.594Z,3.00
2019-06-27T16:44:57.692Z,2.20
2019-06-27T16:47:26.783Z,1.73
2019-06-27T16:49:55.832Z,1.83
2019-06-27T16:52:24.986Z,4.83
2019-06-27T16:54:54.054Z,2.70
2019-06-27T16:57:23.618Z,1.90
2019-06-27T16:59:52.860Z,2.57
2019-06-27T17:02:22.079Z,3.60
2019-06-27T17:04:51.159Z,2.80
2019-06-27T17:07:20.272Z,4.73
2019-06-27T17:09:49.395Z,3.03
2019-06-27T17:12:18.539Z,4.13
2019-06-27T17:14:47.682Z,3.57
2019-06-27T17:17:16.767Z,4.33
2019-06-27T17:19:45.887Z,6.30
2019-06-27T17:22:14.986Z,2.40
2019-06-27T17:24:44.069Z,1.43
2019-06-27T17:27:13.176Z,1.37
2019-06-27T17:29:42.376Z,3.50
2019-06-27T17:32:11.455Z,2.13
2019-06-27T17:34:40.538Z,4.43
2019-06-27T17:37:10.412Z,4.27
2019-06-27T17:39:39.522Z,2.93
2019-06-27T17:42:08.661Z,10.70
2019-06-27T17:44:37.746Z,6.47
2019-06-27T17:47:06.847Z,2.97
2019-06-27T17:49:36.028Z,1.87
2019-06-27T17:52:05.114Z,1.57
2019-06-27T17:54:34.224Z,3.83
2019-06-27T17:57:03.324Z,3.27
2019-06-27T17:59:32.409Z,1.77
2019-06-27T18:02:01.494Z,2.73
2019-06-27T18:04:30.699Z,3.43
2019-06-27T18:07:12.914Z,1.77
2019-06-27T18:09:30.652Z,3.20
2019-06-27T18:11:59.753Z,7.40
2019-06-27T18:14:28.824Z,3.40
2019-06-27T18:16:57.971Z,4.70
2019-06-27T18:19:27.749Z,2.17
2019-06-27T18:21:56.845Z,4.43
2019-06-27T18:24:25.941Z,2.03
2019-06-27T18:26:55.059Z,2.97
2019-06-27T18:29:24.162Z,4.30
2019-06-27T18:31:53.251Z,6.07
2019-06-27T18:34:22.344Z,5.50
2019-06-27T18:36:51.485Z,3.67
2019-06-27T18:39:20.592Z,4.10
2019-06-27T18:41:49.688Z,3.77
2019-06-27T18:44:18.729Z,5.43
2019-06-27T18:46:47.864Z,5.33
2019-06-27T18:49:17.015Z,4.10
2019-06-27T18:51:46.092Z,3.90
2019-06-27T18:54:15.180Z,3.23
2019-06-27T18:56:44.273Z,6.90
2019-06-27T18:59:13.371Z,3.00
2019-06-27T19:01:42.479Z,5.10
2019-06-27T19:04:11.584Z,3.43
2019-06-27T19:06:40.672Z,5.97
2019-06-27T19:09:09.772Z,3.83
2019-06-27T19:11:38.853Z,3.17
2019-06-27T19:14:07.974Z,4.00
2019-06-27T19:16:37.067Z,3.47
2019-06-27T19:19:08.063Z,3.20
2019-06-27T19:21:59.016Z,4.20
2019-06-27T19:24:36.070Z,6.13
2019-06-27T19:27:05.147Z,5.30
2019-06-27T19:29:34.164Z,4.43
2019-06-27T19:32:03.384Z,7.60
2019-06-27T19:34:32.515Z,3.47
2019-06-27T19:37:01.688Z,2.30
2019-06-27T19:39:30.813Z,6.27
2019-06-27T19:41:59.941Z,3.17
2019-06-27T19:44:29.045Z,5.50
2019-06-27T19:46:58.163Z,6.63
2019-06-27T19:49:27.313Z,4.70
2019-06-27T19:51:56.412Z,3.37
2019-06-27T19:54:25.588Z,3.87
2019-06-27T19:56:54.677Z,6.50
2019-06-27T19:59:25.351Z,3.53
2019-06-27T20:01:54.686Z,5.63
2019-06-27T20:04:23.797Z,5.03
2019-06-27T20:06:52.961Z,4.00
2019-06-27T20:09:22.234Z,4.13
2019-06-27T20:11:51.363Z,3.50
2019-06-27T20:14:20.449Z,8.57
2019-06-27T20:16:49.557Z,3.67
2019-06-27T20:19:18.659Z,4.63
2019-06-27T20:21:47.777Z,5.83
2019-06-27T20:24:16.921Z,2.77
2019-06-27T20:26:46.104Z,2.73
2019-06-27T20:29:15.227Z,2.03
2019-06-27T20:31:44.335Z,3.07
2019-06-27T20:34:13.425Z,3.03
2019-06-27T20:36:42.536Z,5.37
2019-06-27T20:39:11.626Z,4.43
2019-06-27T20:41:40.761Z,7.07
2019-06-27T20:44:09.940Z,4.40
2019-06-27T20:46:39.046Z,3.27
2019-06-27T20:49:08.131Z,3.37
2019-06-27T20:51:37.220Z,4.60
2019-06-27T20:54:06.289Z,2.73
2019-06-27T20:56:35.406Z,2.40
2019-06-27T20:59:04.502Z,2.60
2019-06-27T21:01:33.586Z,4.37
2019-06-27T21:04:02.670Z,4.90
2019-06-27T21:06:31.799Z,3.33
2019-06-27T21:09:00.865Z,4.23
2019-06-27T21:11:29.984Z,2.67
2019-06-27T21:13:58.981Z,3.20
2019-06-27T21:16:28.095Z,8.37
2019-06-27T21:18:57.184Z,5.13
2019-06-27T21:21:26.262Z,5.20
2019-06-27T21:23:55.360Z,3.97
2019-06-27T21:26:24.454Z,7.73
2019-06-27T21:28:53.562Z,4.30
2019-06-27T21:31:22.644Z,3.97
2019-06-27T21:33:51.846Z,6.13
2019-06-27T21:36:21.032Z,4.70
2019-06-27T21:38:50.100Z,3.33
2019-06-27T21:41:19.252Z,2.63
2019-06-27T21:43:48.378Z,1.90
2019-06-27T21:46:17.412Z,6.23
2019-06-27T21:48:46.458Z,7.60
2019-06-27T21:51:15.472Z,4.50
2019-06-27T21:53:44.576Z,3.93
2019-06-27T21:56:13.715Z,2.87
2019-06-27T21:58:42.835Z,3.53
2019-06-27T22:01:11.913Z,3.67
2019-06-27T22:03:41.105Z,5.83
2019-06-27T22:06:10.231Z,3.10
2019-06-27T22:08:39.312Z,2.70
2019-06-27T22:11:08.484Z,3.20
2019-06-27T22:13:37.566Z,5.53
2019-06-27T22:16:06.693Z,5.83
2019-06-27T22:18:35.796Z,4.90
2019-06-27T22:21:04.977Z,3.50
2019-06-27T22:23:34.178Z,2.97
2019-06-27T22:26:03.293Z,5.33
2019-06-27T22:28:32.430Z,4.43
2019-06-27T22:31:01.523Z,7.70
2019-06-27T22:33:30.622Z,3.20
2019-06-27T22:35:59.738Z,4.67
2019-06-27T22:38:46.844Z,6.10
2019-06-27T22:41:33.578Z,3.97
2019-06-27T22:44:20.962Z,4.33
2019-06-27T22:47:08.011Z,4.47
2019-06-27T22:49:36.488Z,6.00
2019-06-27T22:52:23.511Z,4.47
2019-06-27T22:54:54.855Z,3.70
2019-06-27T22:57:23.974Z,6.87
2019-06-27T22:59:53.032Z,4.23
2019-06-27T23:02:22.133Z,4.27
2019-06-27T23:04:51.151Z,3.70
2019-06-27T23:07:20.227Z,2.80
2019-06-27T23:09:56.859Z,2.83
2019-06-27T23:12:20.418Z,3.13
2019-06-27T23:14:49.504Z,6.93
2019-06-27T23:17:18.586Z,4.97
2019-06-27T23:19:47.607Z,5.27
2019-06-27T23:22:16.818Z,5.27
2019-06-27T23:24:46.052Z,2.90
2019-06-27T23:27:15.215Z,2.20
2019-06-27T23:29:44.296Z,2.97
2019-06-27T23:32:13.398Z,2.53
2019-06-27T23:34:42.528Z,2.47
2019-06-27T23:37:11.604Z,2.90
2019-06-27T23:39:40.693Z,4.57
2019-06-27T23:42:09.711Z,3.83
2019-06-27T23:44:38.787Z,4.43
2019-06-27T23:47:07.876Z,4.43
2019-06-27T23:49:36.982Z,3.93
2019-06-27T23:52:06.443Z,2.40
2019-06-27T23:54:35.598Z,3.93
2019-06-27T23:57:04.664Z,4.83
2019-06-27T23:59:33.760Z,3.97
